sensor_id;sensor_type;location;lat;lon;timestamp;temperature;humidity
17687;DHT22;8962;52.538;13.266;2023-03-01T00:01:05;-0.80;99.90
17687;DHT22;8962;52.538;13.266;2023-03-01T00:03:33;-0.90;99.90
17687;DHT22;8962;52.538;13.266;2023-03-01T00:06:05;-0.90;99.90
17687;DHT22;8962;52.538;13.266;2023-03-01T00:08:34;-0.90;99.90
17687;DHT22;8962;52.538;13.266;2023-03-01T00:11:05;-1.00;99.90
17687;DHT22;8962;52.538;13.266;2023-03-01T00:13:33;-1.00;99.90
17687;DHT22;8962;52.538;13.266;2023-03-01T00:16:02;-0.90;99.90
17687;DHT22;8962;52.538;13.266;2023-03-01T00:18:29;-1.00;99.90
17687;DHT22;8962;52.538;13.266;2023-03-01T00:20:57;-1.00;99.90
17687;DHT22;8962;52.538;13.266;2023-03-01T00:23:26;-1.00;99.90
17687;DHT22;8962;52.538;13.266;2023-03-01T00:25:54;-1.10;99.90
17687;DHT22;8962;52.538;13.266;2023-03-01T00:28:21;-1.10;99.90
17687;DHT22;8962;52.538;13.266;2023-03-01T00:30:48;-1.10;99.90
17687;DHT22;8962;52.538;13.266;2023-03-01T00:33:16;-1.10;99.90
17687;DHT22;8962;52.538;13.266;2023-03-01T00:35:46;-1.10;99.90
17687;DHT22;8962;52.538;13.266;2023-03-01T00:38:14;-1.10;99.90
17687;DHT22;8962;52.538;13.266;2023-03-01T00:40:42;-1.20;99.90
17687;DHT22;8962;52.538;13.266;2023-03-01T00:43:09;-1.20;99.90
17687;DHT22;8962;52.538;13.266;2023-03-01T00:45:37;-1.20;99.90
17687;DHT22;8962;52.538;13.266;2023-03-01T00:48:05;-1.20;99.90
17687;DHT22;8962;52.538;13.266;2023-03-01T00:50:33;-1.20;99.90
17687;DHT22;8962;52.538;13.266;2023-03-01T00:53:01;-1.30;99.90
17687;DHT22;8962;52.538;13.266;2023-03-01T00:55:30;-1.30;99.90
17687;DHT22;8962;52.538;13.266;2023-03-01T00:57:59;-1.30;99.90
17687;DHT22;8962;52.538;13.266;2023-03-01T01:00:26;-1.40;99.90
17687;DHT22;8962;52.538;13.266;2023-03-01T01:02:56;-1.40;99.90
17687;DHT22;8962;52.538;13.266;2023-03-01T01:05:23;-1.50;99.90
17687;DHT22;8962;52.538;13.266;2023-03-01T01:07:50;-1.50;99.90
17687;DHT22;8962;52.538;13.266;2023-03-01T01:10:18;-1.50;99.90
17687;DHT22;8962;52.538;13.266;2023-03-01T01:12:45;-1.40;99.90
17687;DHT22;8962;52.538;13.266;2023-03-01T01:15:14;-1.40;99.90
17687;DHT22;8962;52.538;13.266;2023-03-01T01:17:42;-1.40;99.90
17687;DHT22;8962;52.538;13.266;2023-03-01T01:20:11;-1.40;99.90
17687;DHT22;8962;52.538;13.266;2023-03-01T01:22:38;-1.40;99.90
17687;DHT22;8962;52.538;13.266;2023-03-01T01:25:06;-1.40;99.90
17687;DHT22;8962;52.538;13.266;2023-03-01T01:27:34;-1.50;99.90
17687;DHT22;8962;52.538;13.266;2023-03-01T01:30:02;-1.50;99.90
17687;DHT22;8962;52.538;13.266;2023-03-01T01:32:31;-1.50;99.90
17687;DHT22;8962;52.538;13.266;2023-03-01T01:34:58;-1.40;99.90
17687;DHT22;8962;52.538;13.266;2023-03-01T01:37:26;-1.40;99.90
17687;DHT22;8962;52.538;13.266;2023-03-01T01:39:59;-1.40;99.90
17687;DHT22;8962;52.538;13.266;2023-03-01T01:42:30;-1.40;99.90
17687;DHT22;8962;52.538;13.266;2023-03-01T01:45:30;-1.50;99.90
17687;DHT22;8962;52.538;13.266;2023-03-01T01:48:03;-1.50;99.90
17687;DHT22;8962;52.538;13.266;2023-03-01T01:50:32;-1.50;99.90
17687;DHT22;8962;52.538;13.266;2023-03-01T01:53:05;-1.50;99.90
17687;DHT22;8962;52.538;13.266;2023-03-01T01:55:36;-1.50;99.90
17687;DHT22;8962;52.538;13.266;2023-03-01T01:58:05;-1.50;99.90
17687;DHT22;8962;52.538;13.266;2023-03-01T02:00:34;-1.50;99.90
17687;DHT22;8962;52.538;13.266;2023-03-01T02:03:10;-1.60;99.90
17687;DHT22;8962;52.538;13.266;2023-03-01T02:05:42;-1.60;99.90
17687;DHT22;8962;52.538;13.266;2023-03-01T02:08:13;-1.60;99.90
17687;DHT22;8962;52.538;13.266;2023-03-01T02:10:41;-1.60;99.90
17687;DHT22;8962;52.538;13.266;2023-03-01T02:13:10;-1.60;99.90
17687;DHT22;8962;52.538;13.266;2023-03-01T02:15:39;-1.60;99.90
17687;DHT22;8962;52.538;13.266;2023-03-01T02:18:15;-1.60;99.90
17687;DHT22;8962;52.538;13.266;2023-03-01T02:20:50;-1.60;99.90
17687;DHT22;8962;52.538;13.266;2023-03-01T02:23:22;-1.60;99.90
17687;DHT22;8962;52.538;13.266;2023-03-01T02:25:54;-1.60;99.90
17687;DHT22;8962;52.538;13.266;2023-03-01T02:28:30;-1.60;99.90
17687;DHT22;8962;52.538;13.266;2023-03-01T02:30:57;-1.60;99.90
17687;DHT22;8962;52.538;13.266;2023-03-01T02:33:44;-1.60;99.90
17687;DHT22;8962;52.538;13.266;2023-03-01T02:36:18;-1.60;99.90
17687;DHT22;8962;52.538;13.266;2023-03-01T02:38:48;-1.60;99.90
17687;DHT22;8962;52.538;13.266;2023-03-01T02:41:17;-1.70;99.90
17687;DHT22;8962;52.538;13.266;2023-03-01T02:43:47;-1.70;99.90
17687;DHT22;8962;52.538;13.266;2023-03-01T02:46:16;-1.70;99.90
17687;DHT22;8962;52.538;13.266;2023-03-01T02:48:44;-1.70;99.90
17687;DHT22;8962;52.538;13.266;2023-03-01T02:51:37;-1.70;99.90
17687;DHT22;8962;52.538;13.266;2023-03-01T02:54:12;-1.70;99.90
17687;DHT22;8962;52.538;13.266;2023-03-01T02:56:42;-1.70;99.90
17687;DHT22;8962;52.538;13.266;2023-03-01T02:59:12;-1.60;99.90
17687;DHT22;8962;52.538;13.266;2023-03-01T03:01:41;-1.70;99.90
17687;DHT22;8962;52.538;13.266;2023-03-01T03:04:13;-1.70;99.90
17687;DHT22;8962;52.538;13.266;2023-03-01T03:06:44;-1.70;99.90
17687;DHT22;8962;52.538;13.266;2023-03-01T03:09:12;-1.70;99.90
17687;DHT22;8962;52.538;13.266;2023-03-01T03:11:40;-1.70;99.90
17687;DHT22;8962;52.538;13.266;2023-03-01T03:14:09;-1.70;99.90
17687;DHT22;8962;52.538;13.266;2023-03-01T03:16:43;-1.70;99.90
17687;DHT22;8962;52.538;13.266;2023-03-01T03:19:11;-1.80;99.90
17687;DHT22;8962;52.538;13.266;2023-03-01T03:21:39;-1.80;99.90
17687;DHT22;8962;52.538;13.266;2023-03-01T03:24:06;-1.80;99.90
17687;DHT22;8962;52.538;13.266;2023-03-01T03:26:34;-1.80;99.90
17687;DHT22;8962;52.538;13.266;2023-03-01T03:29:01;-1.80;99.90
17687;DHT22;8962;52.538;13.266;2023-03-01T03:31:29;-1.80;99.90
17687;DHT22;8962;52.538;13.266;2023-03-01T03:33:58;-1.90;99.90
17687;DHT22;8962;52.538;13.266;2023-03-01T03:36:26;-1.90;99.90
17687;DHT22;8962;52.538;13.266;2023-03-01T03:38:54;-2.00;99.90
17687;DHT22;8962;52.538;13.266;2023-03-01T03:41:21;-2.00;99.90
17687;DHT22;8962;52.538;13.266;2023-03-01T03:43:48;-2.00;99.90
17687;DHT22;8962;52.538;13.266;2023-03-01T03:46:15;-2.00;99.90
17687;DHT22;8962;52.538;13.266;2023-03-01T03:48:44;-2.00;99.90
17687;DHT22;8962;52.538;13.266;2023-03-01T03:51:14;-2.00;99.90
17687;DHT22;8962;52.538;13.266;2023-03-01T03:53:44;-2.00;99.90
17687;DHT22;8962;52.538;13.266;2023-03-01T03:56:12;-2.10;99.90
17687;DHT22;8962;52.538;13.266;2023-03-01T03:58:39;-2.10;99.90
17687;DHT22;8962;52.538;13.266;2023-03-01T04:01:07;-2.10;99.90
17687;DHT22;8962;52.538;13.266;2023-03-01T04:03:35;-2.10;99.90
17687;DHT22;8962;52.538;13.266;2023-03-01T04:06:03;-2.10;99.90
17687;DHT22;8962;52.538;13.266;2023-03-01T04:08:33;-2.20;99.90
17687;DHT22;8962;52.538;13.266;2023-03-01T04:11:01;-2.20;99.90
17687;DHT22;8962;52.538;13.266;2023-03-01T04:13:50;-2.20;99.90
17687;DHT22;8962;52.538;13.266;2023-03-01T04:16:18;-2.20;99.90
17687;DHT22;8962;52.538;13.266;2023-03-01T04:18:46;-2.20;99.90
17687;DHT22;8962;52.538;13.266;2023-03-01T04:21:13;-2.20;99.90
17687;DHT22;8962;52.538;13.266;2023-03-01T04:23:43;-2.20;99.90
17687;DHT22;8962;52.538;13.266;2023-03-01T04:26:10;-2.30;99.90
17687;DHT22;8962;52.538;13.266;2023-03-01T04:28:39;-2.30;99.90
17687;DHT22;8962;52.538;13.266;2023-03-01T04:31:12;-2.30;99.90
17687;DHT22;8962;52.538;13.266;2023-03-01T04:33:41;-2.30;99.90
17687;DHT22;8962;52.538;13.266;2023-03-01T04:36:10;-2.30;99.90
17687;DHT22;8962;52.538;13.266;2023-03-01T04:38:38;-2.30;99.90
17687;DHT22;8962;52.538;13.266;2023-03-01T04:41:09;-2.30;99.90
17687;DHT22;8962;52.538;13.266;2023-03-01T04:43:37;-2.30;99.90
17687;DHT22;8962;52.538;13.266;2023-03-01T04:46:08;-2.40;99.90
17687;DHT22;8962;52.538;13.266;2023-03-01T04:48:35;-2.40;99.90
17687;DHT22;8962;52.538;13.266;2023-03-01T04:51:03;-2.30;99.90
17687;DHT22;8962;52.538;13.266;2023-03-01T04:53:32;-2.30;99.90
17687;DHT22;8962;52.538;13.266;2023-03-01T04:56:02;-2.30;99.90
17687;DHT22;8962;52.538;13.266;2023-03-01T04:58:30;-2.30;99.90
17687;DHT22;8962;52.538;13.266;2023-03-01T05:00:58;-2.30;99.90
17687;DHT22;8962;52.538;13.266;2023-03-01T05:03:25;-2.40;99.90
17687;DHT22;8962;52.538;13.266;2023-03-01T05:05:53;-2.40;99.90
17687;DHT22;8962;52.538;13.266;2023-03-01T05:08:20;-2.40;99.90
17687;DHT22;8962;52.538;13.266;2023-03-01T05:10:51;-2.50;99.90
17687;DHT22;8962;52.538;13.266;2023-03-01T05:13:21;-2.50;99.90
17687;DHT22;8962;52.538;13.266;2023-03-01T05:15:56;-2.50;99.90
17687;DHT22;8962;52.538;13.266;2023-03-01T05:18:24;-2.50;99.90
17687;DHT22;8962;52.538;13.266;2023-03-01T05:20:53;-2.50;99.90
17687;DHT22;8962;52.538;13.266;2023-03-01T05:23:22;-2.50;99.90
17687;DHT22;8962;52.538;13.266;2023-03-01T05:25:50;-2.50;99.90
17687;DHT22;8962;52.538;13.266;2023-03-01T05:28:20;-2.50;99.90
17687;DHT22;8962;52.538;13.266;2023-03-01T05:30:49;-2.50;99.90
17687;DHT22;8962;52.538;13.266;2023-03-01T05:33:17;-2.40;99.90
17687;DHT22;8962;52.538;13.266;2023-03-01T05:35:45;-2.40;99.90
17687;DHT22;8962;52.538;13.266;2023-03-01T05:38:15;-2.50;99.90
17687;DHT22;8962;52.538;13.266;2023-03-01T05:40:44;-2.50;99.90
17687;DHT22;8962;52.538;13.266;2023-03-01T05:43:13;-2.40;99.90
17687;DHT22;8962;52.538;13.266;2023-03-01T05:45:42;-2.50;99.90
17687;DHT22;8962;52.538;13.266;2023-03-01T05:48:11;-2.50;99.90
17687;DHT22;8962;52.538;13.266;2023-03-01T05:50:41;-2.50;99.90
17687;DHT22;8962;52.538;13.266;2023-03-01T05:53:11;-2.50;99.90
17687;DHT22;8962;52.538;13.266;2023-03-01T05:55:40;-2.50;99.90
17687;DHT22;8962;52.538;13.266;2023-03-01T05:58:09;-2.50;99.90
17687;DHT22;8962;52.538;13.266;2023-03-01T06:00:37;-2.50;99.90
17687;DHT22;8962;52.538;13.266;2023-03-01T06:03:05;-2.50;99.90
17687;DHT22;8962;52.538;13.266;2023-03-01T06:05:34;-2.50;99.90
17687;DHT22;8962;52.538;13.266;2023-03-01T06:08:01;-2.50;99.90
17687;DHT22;8962;52.538;13.266;2023-03-01T06:10:29;-2.50;99.90
17687;DHT22;8962;52.538;13.266;2023-03-01T06:12:58;-2.40;99.90
17687;DHT22;8962;52.538;13.266;2023-03-01T06:15:25;-2.40;99.90
17687;DHT22;8962;52.538;13.266;2023-03-01T06:17:54;-2.40;99.90
17687;DHT22;8962;52.538;13.266;2023-03-01T06:20:25;-2.40;99.90
17687;DHT22;8962;52.538;13.266;2023-03-01T06:22:59;-2.40;99.90
17687;DHT22;8962;52.538;13.266;2023-03-01T06:25:27;-2.30;99.90
17687;DHT22;8962;52.538;13.266;2023-03-01T06:27:55;-2.30;99.90
17687;DHT22;8962;52.538;13.266;2023-03-01T06:30:25;-2.30;99.90
17687;DHT22;8962;52.538;13.266;2023-03-01T06:32:52;-2.20;99.90
17687;DHT22;8962;52.538;13.266;2023-03-01T06:35:26;-2.20;99.90
17687;DHT22;8962;52.538;13.266;2023-03-01T06:37:56;-2.20;99.90
17687;DHT22;8962;52.538;13.266;2023-03-01T06:40:25;-2.10;99.90
17687;DHT22;8962;52.538;13.266;2023-03-01T06:42:53;-2.10;99.90
17687;DHT22;8962;52.538;13.266;2023-03-01T06:45:21;-2.00;99.90
17687;DHT22;8962;52.538;13.266;2023-03-01T06:47:48;-2.00;99.90
17687;DHT22;8962;52.538;13.266;2023-03-01T06:50:17;-1.90;99.90
17687;DHT22;8962;52.538;13.266;2023-03-01T06:52:46;-1.90;99.90
17687;DHT22;8962;52.538;13.266;2023-03-01T06:55:13;-1.80;99.90
17687;DHT22;8962;52.538;13.266;2023-03-01T06:57:42;-1.60;99.90
17687;DHT22;8962;52.538;13.266;2023-03-01T07:00:12;-1.70;99.90
17687;DHT22;8962;52.538;13.266;2023-03-01T07:02:41;-1.80;99.90
17687;DHT22;8962;52.538;13.266;2023-03-01T07:05:09;-1.80;99.90
17687;DHT22;8962;52.538;13.266;2023-03-01T07:07:36;-1.70;99.90
17687;DHT22;8962;52.538;13.266;2023-03-01T07:10:03;-1.70;99.90
17687;DHT22;8962;52.538;13.266;2023-03-01T07:12:32;-1.70;99.90
17687;DHT22;8962;52.538;13.266;2023-03-01T07:15:03;-1.60;99.90
17687;DHT22;8962;52.538;13.266;2023-03-01T07:17:31;-1.60;99.90
17687;DHT22;8962;52.538;13.266;2023-03-01T07:19:58;-1.50;99.90
17687;DHT22;8962;52.538;13.266;2023-03-01T07:22:27;-1.40;99.90
17687;DHT22;8962;52.538;13.266;2023-03-01T07:24:54;-1.20;99.90
17687;DHT22;8962;52.538;13.266;2023-03-01T07:27:22;-1.20;99.90
17687;DHT22;8962;52.538;13.266;2023-03-01T07:29:48;-1.20;99.90
17687;DHT22;8962;52.538;13.266;2023-03-01T07:32:18;-1.10;99.90
17687;DHT22;8962;52.538;13.266;2023-03-01T07:34:45;-1.00;99.90
17687;DHT22;8962;52.538;13.266;2023-03-01T07:37:14;-0.90;99.90
17687;DHT22;8962;52.538;13.266;2023-03-01T07:39:44;-0.80;99.90
17687;DHT22;8962;52.538;13.266;2023-03-01T07:42:11;-0.70;99.90
17687;DHT22;8962;52.538;13.266;2023-03-01T07:44:39;-0.40;99.90
17687;DHT22;8962;52.538;13.266;2023-03-01T07:47:06;-0.40;99.90
17687;DHT22;8962;52.538;13.266;2023-03-01T07:49:35;-0.30;99.90
17687;DHT22;8962;52.538;13.266;2023-03-01T07:52:05;-0.30;99.90
17687;DHT22;8962;52.538;13.266;2023-03-01T07:54:34;-0.20;99.90
17687;DHT22;8962;52.538;13.266;2023-03-01T07:57:01;-0.10;99.90
17687;DHT22;8962;52.538;13.266;2023-03-01T07:59:28;0.00;99.90
17687;DHT22;8962;52.538;13.266;2023-03-01T08:01:55;0.10;99.90
17687;DHT22;8962;52.538;13.266;2023-03-01T08:04:22;0.20;99.90
17687;DHT22;8962;52.538;13.266;2023-03-01T08:06:52;0.50;99.90
17687;DHT22;8962;52.538;13.266;2023-03-01T08:09:21;0.60;99.90
17687;DHT22;8962;52.538;13.266;2023-03-01T08:11:48;0.60;99.90
17687;DHT22;8962;52.538;13.266;2023-03-01T08:14:16;0.80;99.90
17687;DHT22;8962;52.538;13.266;2023-03-01T08:16:43;0.90;99.90
17687;DHT22;8962;52.538;13.266;2023-03-01T08:19:12;1.00;99.90
17687;DHT22;8962;52.538;13.266;2023-03-01T08:21:40;1.10;99.90
17687;DHT22;8962;52.538;13.266;2023-03-01T08:24:09;1.20;99.90
17687;DHT22;8962;52.538;13.266;2023-03-01T08:26:37;1.30;99.90
17687;DHT22;8962;52.538;13.266;2023-03-01T08:29:06;1.50;99.90
17687;DHT22;8962;52.538;13.266;2023-03-01T08:31:36;1.70;99.90
17687;DHT22;8962;52.538;13.266;2023-03-01T08:34:07;1.80;99.90
17687;DHT22;8962;52.538;13.266;2023-03-01T08:36:36;1.90;99.90
17687;DHT22;8962;52.538;13.266;2023-03-01T08:39:04;2.10;99.90
17687;DHT22;8962;52.538;13.266;2023-03-01T08:41:34;2.20;99.90
17687;DHT22;8962;52.538;13.266;2023-03-01T08:44:02;2.40;99.90
17687;DHT22;8962;52.538;13.266;2023-03-01T08:46:31;2.70;99.90
17687;DHT22;8962;52.538;13.266;2023-03-01T08:48:58;2.80;99.90
17687;DHT22;8962;52.538;13.266;2023-03-01T08:51:27;2.90;99.90
17687;DHT22;8962;52.538;13.266;2023-03-01T08:53:55;3.10;99.90
17687;DHT22;8962;52.538;13.266;2023-03-01T08:56:22;3.30;99.90
17687;DHT22;8962;52.538;13.266;2023-03-01T08:58:51;3.50;99.90
17687;DHT22;8962;52.538;13.266;2023-03-01T09:01:19;3.60;99.90
17687;DHT22;8962;52.538;13.266;2023-03-01T09:03:46;3.80;99.90
17687;DHT22;8962;52.538;13.266;2023-03-01T09:06:14;3.90;99.90
17687;DHT22;8962;52.538;13.266;2023-03-01T09:08:43;4.00;99.90
17687;DHT22;8962;52.538;13.266;2023-03-01T09:11:13;4.00;99.90
17687;DHT22;8962;52.538;13.266;2023-03-01T09:13:41;4.20;99.90
17687;DHT22;8962;52.538;13.266;2023-03-01T09:16:11;4.30;99.90
17687;DHT22;8962;52.538;13.266;2023-03-01T09:18:39;4.40;99.90
17687;DHT22;8962;52.538;13.266;2023-03-01T09:21:07;4.60;99.90
17687;DHT22;8962;52.538;13.266;2023-03-01T09:23:35;4.60;99.90
17687;DHT22;8962;52.538;13.266;2023-03-01T09:26:04;4.60;99.90
17687;DHT22;8962;52.538;13.266;2023-03-01T09:28:33;4.70;99.90
17687;DHT22;8962;52.538;13.266;2023-03-01T09:31:01;4.80;99.90
17687;DHT22;8962;52.538;13.266;2023-03-01T09:33:30;5.00;99.90
17687;DHT22;8962;52.538;13.266;2023-03-01T09:35:59;5.00;99.90
17687;DHT22;8962;52.538;13.266;2023-03-01T09:38:28;5.00;99.90
17687;DHT22;8962;52.538;13.266;2023-03-01T09:40:55;5.10;99.90
17687;DHT22;8962;52.538;13.266;2023-03-01T09:43:27;5.20;99.90
17687;DHT22;8962;52.538;13.266;2023-03-01T09:46:00;5.20;99.90
17687;DHT22;8962;52.538;13.266;2023-03-01T09:48:37;5.20;99.90
17687;DHT22;8962;52.538;13.266;2023-03-01T09:51:17;5.20;99.90
17687;DHT22;8962;52.538;13.266;2023-03-01T09:53:46;5.40;99.90
17687;DHT22;8962;52.538;13.266;2023-03-01T09:56:19;5.50;99.90
17687;DHT22;8962;52.538;13.266;2023-03-01T09:58:52;5.60;99.90
17687;DHT22;8962;52.538;13.266;2023-03-01T10:01:43;5.70;99.90
17687;DHT22;8962;52.538;13.266;2023-03-01T10:04:27;5.80;99.90
17687;DHT22;8962;52.538;13.266;2023-03-01T10:07:16;5.80;99.90
17687;DHT22;8962;52.538;13.266;2023-03-01T10:09:46;5.90;99.90
17687;DHT22;8962;52.538;13.266;2023-03-01T10:12:16;5.90;99.90
17687;DHT22;8962;52.538;13.266;2023-03-01T10:14:51;6.10;99.90
17687;DHT22;8962;52.538;13.266;2023-03-01T10:17:27;6.10;99.90
17687;DHT22;8962;52.538;13.266;2023-03-01T10:20:16;6.20;99.90
17687;DHT22;8962;52.538;13.266;2023-03-01T10:22:44;6.00;99.90
17687;DHT22;8962;52.538;13.266;2023-03-01T10:25:18;6.00;99.90
17687;DHT22;8962;52.538;13.266;2023-03-01T10:27:52;5.90;99.90
17687;DHT22;8962;52.538;13.266;2023-03-01T10:30:21;5.60;99.90
17687;DHT22;8962;52.538;13.266;2023-03-01T10:32:51;5.80;99.90
17687;DHT22;8962;52.538;13.266;2023-03-01T10:35:23;5.80;99.90
17687;DHT22;8962;52.538;13.266;2023-03-01T10:37:58;5.80;99.90
17687;DHT22;8962;52.538;13.266;2023-03-01T10:40:30;6.00;99.90
17687;DHT22;8962;52.538;13.266;2023-03-01T10:42:59;6.00;99.90
17687;DHT22;8962;52.538;13.266;2023-03-01T10:45:33;6.00;99.90
17687;DHT22;8962;52.538;13.266;2023-03-01T10:48:08;6.00;99.90
17687;DHT22;8962;52.538;13.266;2023-03-01T10:50:39;6.00;99.90
17687;DHT22;8962;52.538;13.266;2023-03-01T10:53:20;6.10;99.90
17687;DHT22;8962;52.538;13.266;2023-03-01T10:55:57;6.20;99.90
17687;DHT22;8962;52.538;13.266;2023-03-01T10:58:26;6.10;99.90
17687;DHT22;8962;52.538;13.266;2023-03-01T11:00:54;6.00;99.90
17687;DHT22;8962;52.538;13.266;2023-03-01T11:03:24;6.00;99.90
17687;DHT22;8962;52.538;13.266;2023-03-01T11:06:19;6.00;99.90
17687;DHT22;8962;52.538;13.266;2023-03-01T11:08:49;6.10;99.90
17687;DHT22;8962;52.538;13.266;2023-03-01T11:11:29;6.20;99.90
17687;DHT22;8962;52.538;13.266;2023-03-01T11:13:59;6.10;99.90
17687;DHT22;8962;52.538;13.266;2023-03-01T11:16:29;6.00;99.90
17687;DHT22;8962;52.538;13.266;2023-03-01T11:19:13;6.10;99.90
17687;DHT22;8962;52.538;13.266;2023-03-01T11:21:46;6.40;99.90
17687;DHT22;8962;52.538;13.266;2023-03-01T11:24:16;6.40;99.90
17687;DHT22;8962;52.538;13.266;2023-03-01T11:26:47;6.60;99.90
17687;DHT22;8962;52.538;13.266;2023-03-01T11:29:26;6.80;99.90
17687;DHT22;8962;52.538;13.266;2023-03-01T11:31:57;7.70;99.90
17687;DHT22;8962;52.538;13.266;2023-03-01T11:34:38;9.00;99.90
17687;DHT22;8962;52.538;13.266;2023-03-01T11:37:16;10.20;97.00
17687;DHT22;8962;52.538;13.266;2023-03-01T11:39:56;11.50;92.00
17687;DHT22;8962;52.538;13.266;2023-03-01T11:42:30;12.30;87.70
17687;DHT22;8962;52.538;13.266;2023-03-01T11:45:08;13.00;71.70
17687;DHT22;8962;52.538;13.266;2023-03-01T11:48:06;13.90;65.40
17687;DHT22;8962;52.538;13.266;2023-03-01T11:50:41;14.00;67.90
17687;DHT22;8962;52.538;13.266;2023-03-01T11:53:34;14.80;59.20
17687;DHT22;8962;52.538;13.266;2023-03-01T11:56:09;14.80;57.40
17687;DHT22;8962;52.538;13.266;2023-03-01T11:58:55;15.00;55.50
17687;DHT22;8962;52.538;13.266;2023-03-01T12:01:44;15.50;55.20
17687;DHT22;8962;52.538;13.266;2023-03-01T12:04:30;15.60;51.60
17687;DHT22;8962;52.538;13.266;2023-03-01T12:07:06;15.70;53.00
17687;DHT22;8962;52.538;13.266;2023-03-01T12:09:53;15.80;49.30
17687;DHT22;8962;52.538;13.266;2023-03-01T12:12:29;16.10;49.30
17687;DHT22;8962;52.538;13.266;2023-03-01T12:15:30;17.10;46.40
17687;DHT22;8962;52.538;13.266;2023-03-01T12:18:18;17.50;44.00
17687;DHT22;8962;52.538;13.266;2023-03-01T12:20:58;17.80;41.70
17687;DHT22;8962;52.538;13.266;2023-03-01T12:26:44;17.30;40.70
17687;DHT22;8962;52.538;13.266;2023-03-01T12:29:25;16.90;42.80
17687;DHT22;8962;52.538;13.266;2023-03-01T12:32:13;17.40;40.20
17687;DHT22;8962;52.538;13.266;2023-03-01T12:37:47;17.00;41.90
17687;DHT22;8962;52.538;13.266;2023-03-01T12:40:34;17.50;39.20
17687;DHT22;8962;52.538;13.266;2023-03-01T12:43:22;17.70;38.10
17687;DHT22;8962;52.538;13.266;2023-03-01T12:46:18;17.60;37.20
17687;DHT22;8962;52.538;13.266;2023-03-01T12:48:54;18.10;36.60
17687;DHT22;8962;52.538;13.266;2023-03-01T12:51:28;18.10;38.20
17687;DHT22;8962;52.538;13.266;2023-03-01T12:54:00;17.90;37.10
17687;DHT22;8962;52.538;13.266;2023-03-01T12:56:31;19.20;35.50
17687;DHT22;8962;52.538;13.266;2023-03-01T12:59:11;19.00;34.30
17687;DHT22;8962;52.538;13.266;2023-03-01T13:01:45;18.50;33.20
17687;DHT22;8962;52.538;13.266;2023-03-01T13:04:21;18.20;35.20
17687;DHT22;8962;52.538;13.266;2023-03-01T13:07:03;18.60;33.40
17687;DHT22;8962;52.538;13.266;2023-03-01T13:09:36;17.60;33.40
17687;DHT22;8962;52.538;13.266;2023-03-01T13:12:14;17.70;32.60
17687;DHT22;8962;52.538;13.266;2023-03-01T13:15:01;17.50;35.20
17687;DHT22;8962;52.538;13.266;2023-03-01T13:17:33;17.90;33.30
17687;DHT22;8962;52.538;13.266;2023-03-01T13:20:13;18.60;32.60
17687;DHT22;8962;52.538;13.266;2023-03-01T13:22:41;20.00;32.00
17687;DHT22;8962;52.538;13.266;2023-03-01T13:25:14;20.60;30.80
17687;DHT22;8962;52.538;13.266;2023-03-01T13:27:45;20.40;30.00
17687;DHT22;8962;52.538;13.266;2023-03-01T13:30:41;19.90;30.20
17687;DHT22;8962;52.538;13.266;2023-03-01T13:33:38;19.60;31.10
17687;DHT22;8962;52.538;13.266;2023-03-01T13:36:07;20.30;30.50
17687;DHT22;8962;52.538;13.266;2023-03-01T13:38:48;21.10;29.50
17687;DHT22;8962;52.538;13.266;2023-03-01T13:41:49;19.50;29.60
17687;DHT22;8962;52.538;13.266;2023-03-01T13:44:22;18.30;31.50
17687;DHT22;8962;52.538;13.266;2023-03-01T13:46:56;18.30;31.40
17687;DHT22;8962;52.538;13.266;2023-03-01T13:49:27;18.30;31.80
17687;DHT22;8962;52.538;13.266;2023-03-01T13:51:55;19.00;31.20
17687;DHT22;8962;52.538;13.266;2023-03-01T13:54:28;18.60;30.20
17687;DHT22;8962;52.538;13.266;2023-03-01T13:56:57;19.10;30.50
17687;DHT22;8962;52.538;13.266;2023-03-01T13:59:25;19.50;30.30
17687;DHT22;8962;52.538;13.266;2023-03-01T14:01:56;19.80;29.80
17687;DHT22;8962;52.538;13.266;2023-03-01T14:04:25;19.70;29.80
17687;DHT22;8962;52.538;13.266;2023-03-01T14:07:09;19.90;29.50
17687;DHT22;8962;52.538;13.266;2023-03-01T14:09:39;20.00;29.90
17687;DHT22;8962;52.538;13.266;2023-03-01T14:12:21;20.00;29.20
17687;DHT22;8962;52.538;13.266;2023-03-01T14:14:56;18.60;29.20
17687;DHT22;8962;52.538;13.266;2023-03-01T14:17:40;19.50;28.60
17687;DHT22;8962;52.538;13.266;2023-03-01T14:20:14;19.80;29.20
17687;DHT22;8962;52.538;13.266;2023-03-01T14:22:44;19.50;29.20
17687;DHT22;8962;52.538;13.266;2023-03-01T14:25:22;18.80;29.50
17687;DHT22;8962;52.538;13.266;2023-03-01T14:27:59;16.90;32.10
17687;DHT22;8962;52.538;13.266;2023-03-01T14:30:31;15.50;33.00
17687;DHT22;8962;52.538;13.266;2023-03-01T14:33:02;14.40;33.80
17687;DHT22;8962;52.538;13.266;2023-03-01T14:35:34;12.90;36.10
17687;DHT22;8962;52.538;13.266;2023-03-01T14:38:02;12.00;39.50
17687;DHT22;8962;52.538;13.266;2023-03-01T14:40:32;11.10;42.30
17687;DHT22;8962;52.538;13.266;2023-03-01T14:43:02;10.40;44.10
17687;DHT22;8962;52.538;13.266;2023-03-01T14:45:36;10.10;45.40
17687;DHT22;8962;52.538;13.266;2023-03-01T14:48:06;9.60;46.80
17687;DHT22;8962;52.538;13.266;2023-03-01T14:50:40;9.30;50.70
17687;DHT22;8962;52.538;13.266;2023-03-01T14:53:16;8.90;51.90
17687;DHT22;8962;52.538;13.266;2023-03-01T14:55:47;8.80;54.00
17687;DHT22;8962;52.538;13.266;2023-03-01T14:58:19;8.70;54.30
17687;DHT22;8962;52.538;13.266;2023-03-01T15:00:50;8.60;57.00
17687;DHT22;8962;52.538;13.266;2023-03-01T15:03:25;8.60;63.50
17687;DHT22;8962;52.538;13.266;2023-03-01T15:05:53;8.60;65.10
17687;DHT22;8962;52.538;13.266;2023-03-01T15:08:23;8.50;66.70
17687;DHT22;8962;52.538;13.266;2023-03-01T15:11:01;8.40;68.00
17687;DHT22;8962;52.538;13.266;2023-03-01T15:13:32;8.30;70.10
17687;DHT22;8962;52.538;13.266;2023-03-01T15:16:06;8.20;71.40
17687;DHT22;8962;52.538;13.266;2023-03-01T15:18:35;8.30;75.60
17687;DHT22;8962;52.538;13.266;2023-03-01T15:21:09;8.40;80.30
17687;DHT22;8962;52.538;13.266;2023-03-01T15:23:38;8.40;77.10
17687;DHT22;8962;52.538;13.266;2023-03-01T15:26:22;8.30;78.80
17687;DHT22;8962;52.538;13.266;2023-03-01T15:28:52;8.30;81.60
17687;DHT22;8962;52.538;13.266;2023-03-01T15:31:22;8.20;79.50
17687;DHT22;8962;52.538;13.266;2023-03-01T15:34:08;8.20;79.90
17687;DHT22;8962;52.538;13.266;2023-03-01T15:36:42;8.10;83.90
17687;DHT22;8962;52.538;13.266;2023-03-01T15:39:33;8.10;81.80
17687;DHT22;8962;52.538;13.266;2023-03-01T15:42:04;8.00;82.00
17687;DHT22;8962;52.538;13.266;2023-03-01T15:44:33;8.00;82.10
17687;DHT22;8962;52.538;13.266;2023-03-01T15:47:02;7.90;83.50
17687;DHT22;8962;52.538;13.266;2023-03-01T15:49:37;7.90;84.70
17687;DHT22;8962;52.538;13.266;2023-03-01T15:52:10;7.90;87.40
17687;DHT22;8962;52.538;13.266;2023-03-01T15:54:40;8.10;92.80
17687;DHT22;8962;52.538;13.266;2023-03-01T15:57:13;8.00;91.70
17687;DHT22;8962;52.538;13.266;2023-03-01T15:59:42;8.00;93.10
17687;DHT22;8962;52.538;13.266;2023-03-01T16:02:10;7.90;93.30
17687;DHT22;8962;52.538;13.266;2023-03-01T16:04:41;7.70;94.10
17687;DHT22;8962;52.538;13.266;2023-03-01T16:07:10;7.60;94.80
17687;DHT22;8962;52.538;13.266;2023-03-01T16:09:37;7.60;95.50